createdAt,value
2018-10-04T00:01:10.263Z,11.10
2018-10-04T00:03:42.125Z,6.47
2018-10-04T00:06:13.872Z,7.47
2018-10-04T00:08:45.739Z,5.57
2018-10-04T00:11:17.487Z,6.37
2018-10-04T00:13:49.141Z,6.90
2018-10-04T00:16:20.913Z,8.97
2018-10-04T00:18:52.649Z,10.27
2018-10-04T00:21:24.548Z,7.80
2018-10-04T00:23:56.392Z,8.47
2018-10-04T00:26:28.146Z,8.07
2018-10-04T00:29:00.020Z,8.53
2018-10-04T00:31:31.750Z,8.60
2018-10-04T00:34:03.533Z,8.67
2018-10-04T00:36:35.277Z,6.30
2018-10-04T00:39:07.455Z,8.13
2018-10-04T00:41:39.305Z,10.27
2018-10-04T00:44:11.112Z,14.97
2018-10-04T00:46:42.921Z,12.43
2018-10-04T00:49:14.689Z,8.40
2018-10-04T00:51:46.521Z,11.23
2018-10-04T00:54:18.526Z,11.80
2018-10-04T00:56:50.306Z,6.93
2018-10-04T00:59:21.925Z,11.57
2018-10-04T01:01:53.659Z,8.37
2018-10-04T01:04:25.330Z,9.13
2018-10-04T01:06:57.084Z,7.40
2018-10-04T01:09:29.861Z,9.97
2018-10-04T01:12:01.657Z,7.03
2018-10-04T01:14:33.389Z,9.70
2018-10-04T01:17:05.074Z,6.37
2018-10-04T01:19:36.902Z,7.83
2018-10-04T01:22:09.221Z,7.87
2018-10-04T01:24:40.936Z,7.93
2018-10-04T01:27:12.600Z,7.60
2018-10-04T01:29:44.342Z,7.80
2018-10-04T01:32:16.133Z,10.20
2018-10-04T01:34:47.885Z,8.97
2018-10-04T01:37:19.632Z,5.30
2018-10-04T01:39:51.413Z,9.20
2018-10-04T01:42:23.384Z,6.07
2018-10-04T01:44:55.120Z,8.10
2018-10-04T01:47:26.961Z,9.23
2018-10-04T01:49:58.861Z,8.33
2018-10-04T01:52:30.590Z,8.17
2018-10-04T01:55:02.257Z,8.13
2018-10-04T01:57:34.002Z,5.93
2018-10-04T02:00:05.766Z,7.67
2018-10-04T02:02:37.517Z,7.77
2018-10-04T02:05:09.493Z,6.03
2018-10-04T02:07:41.147Z,10.17
2018-10-04T02:10:12.804Z,9.40
2018-10-04T02:12:44.658Z,8.97
2018-10-04T02:15:16.324Z,6.67
2018-10-04T02:17:47.994Z,9.80
2018-10-04T02:20:19.732Z,8.83
2018-10-04T02:22:51.502Z,10.60
2018-10-04T02:25:23.345Z,9.40
2018-10-04T02:27:55.518Z,9.30
2018-10-04T02:30:27.280Z,7.50
2018-10-04T02:32:58.946Z,8.40
2018-10-04T02:35:30.708Z,8.30
2018-10-04T02:38:02.567Z,6.30
2018-10-04T02:40:34.314Z,9.17
2018-10-04T02:43:06.107Z,7.07
2018-10-04T02:45:37.961Z,8.07
2018-10-04T02:48:09.990Z,7.00
2018-10-04T02:50:41.962Z,9.87
2018-10-04T02:53:13.829Z,6.57
2018-10-04T02:55:50.638Z,6.73
2018-10-04T02:58:22.373Z,9.80
2018-10-04T03:00:54.038Z,10.93
2018-10-04T03:03:25.781Z,8.57
2018-10-04T03:05:57.560Z,8.00
2018-10-04T03:08:29.273Z,8.40
2018-10-04T03:11:01.051Z,8.23
2018-10-04T03:13:32.719Z,6.60
2018-10-04T03:16:04.382Z,8.33
2018-10-04T03:18:36.118Z,8.23
2018-10-04T03:21:07.815Z,8.80
2018-10-04T03:23:39.632Z,8.10
2018-10-04T03:26:11.535Z,8.67
2018-10-04T03:28:43.261Z,7.93
2018-10-04T03:31:15.121Z,8.97
2018-10-04T03:33:47.088Z,8.77
2018-10-04T03:36:19.085Z,6.50
2018-10-04T03:38:50.952Z,9.33
2018-10-04T03:41:22.680Z,10.23
2018-10-04T03:43:54.465Z,8.30
2018-10-04T03:46:26.324Z,9.47
2018-10-04T03:48:58.074Z,7.73
2018-10-04T03:51:29.909Z,8.67
2018-10-04T03:54:01.694Z,6.80
2018-10-04T03:56:33.465Z,7.23
2018-10-04T03:59:05.313Z,4.93
2018-10-04T04:01:37.153Z,3.17
2018-10-04T04:04:09.092Z,6.43
2018-10-04T04:06:40.864Z,4.17
2018-10-04T04:09:13.593Z,9.07
2018-10-04T04:11:45.376Z,4.67
2018-10-04T04:14:17.194Z,4.03
2018-10-04T04:16:49.037Z,6.90
2018-10-04T04:19:20.933Z,7.30
2018-10-04T04:21:52.676Z,6.93
2018-10-04T04:24:24.434Z,6.57
2018-10-04T04:26:56.275Z,7.87
2018-10-04T04:29:28.056Z,4.83
2018-10-04T04:31:59.837Z,8.37
2018-10-04T04:34:31.657Z,6.80
2018-10-04T04:37:03.419Z,7.13
2018-10-04T04:39:36.095Z,4.90
2018-10-04T04:42:07.851Z,8.37
2018-10-04T04:44:39.539Z,6.53
2018-10-04T04:47:11.336Z,6.17
2018-10-04T04:49:43.030Z,10.20
2018-10-04T04:52:14.705Z,5.00
2018-10-04T04:55:49.520Z,7.60
2018-10-04T04:58:21.285Z,7.57
2018-10-04T05:00:52.914Z,5.87
2018-10-04T05:03:24.732Z,4.20
2018-10-04T05:05:56.466Z,5.67
2018-10-04T05:08:28.328Z,7.17
2018-10-04T05:11:00.229Z,7.17
2018-10-04T05:13:32.075Z,5.10
2018-10-04T05:16:03.825Z,10.10
2018-10-04T05:18:35.592Z,7.93
2018-10-04T05:21:07.449Z,8.03
2018-10-04T05:23:39.189Z,7.77
2018-10-04T05:26:11.041Z,5.97
2018-10-04T05:28:42.696Z,8.67
2018-10-04T05:31:14.373Z,4.80
2018-10-04T05:33:46.250Z,5.27
2018-10-04T05:36:17.985Z,3.87
2018-10-04T05:38:49.743Z,8.63
2018-10-04T05:41:21.593Z,7.57
2018-10-04T05:43:53.349Z,7.67
2018-10-04T05:46:25.013Z,7.37
2018-10-04T05:48:56.865Z,9.53
2018-10-04T05:51:28.628Z,7.23
2018-10-04T05:54:00.424Z,5.23
2018-10-04T05:56:32.162Z,6.70
2018-10-04T05:59:04.062Z,9.63
2018-10-04T06:01:35.781Z,10.43
2018-10-04T06:04:07.449Z,8.73
2018-10-04T06:06:46.841Z,11.80
2018-10-04T06:09:19.869Z,7.93
2018-10-04T06:11:51.729Z,6.13
2018-10-04T06:14:23.883Z,5.30
2018-10-04T06:16:55.737Z,7.10
2018-10-04T06:19:29.558Z,9.50
2018-10-04T06:22:01.432Z,8.43
2018-10-04T06:24:33.186Z,9.00
2018-10-04T06:27:05.038Z,9.30
2018-10-04T06:29:36.697Z,9.63
2018-10-04T06:32:08.563Z,9.40
2018-10-04T06:34:40.406Z,11.17
2018-10-04T06:37:12.169Z,9.70
2018-10-04T06:39:44.066Z,7.50
2018-10-04T06:42:16.066Z,7.43
2018-10-04T06:44:48.050Z,7.73
2018-10-04T06:47:19.918Z,7.97
2018-10-04T06:49:51.815Z,9.47
2018-10-04T06:52:23.562Z,5.23
2018-10-04T06:54:55.325Z,5.67
2018-10-04T06:57:27.087Z,2.70
2018-10-04T06:59:58.721Z,2.50
2018-10-04T07:02:30.529Z,2.80
2018-10-04T07:05:02.250Z,2.60
2018-10-04T07:07:33.910Z,4.97
2018-10-04T07:10:06.113Z,5.20
2018-10-04T07:12:37.925Z,5.07
2018-10-04T07:15:09.707Z,2.57
2018-10-04T07:17:41.530Z,4.23
2018-10-04T07:20:13.297Z,4.13
2018-10-04T07:22:45.015Z,2.67
2018-10-04T07:25:16.725Z,3.97
2018-10-04T07:27:48.510Z,3.90
2018-10-04T07:30:21.183Z,2.97
2018-10-04T07:32:53.459Z,2.17
2018-10-04T07:35:25.189Z,5.67
2018-10-04T07:37:57.050Z,2.53
2018-10-04T07:40:29.554Z,2.20
2018-10-04T07:43:01.387Z,1.90
2018-10-04T07:45:33.282Z,2.50
2018-10-04T07:48:05.031Z,2.90
2018-10-04T07:50:36.790Z,7.00
2018-10-04T07:53:08.726Z,7.50
2018-10-04T07:55:40.505Z,5.87
2018-10-04T07:58:12.484Z,3.50
2018-10-04T08:00:44.224Z,3.13
2018-10-04T08:03:16.078Z,4.13
2018-10-04T08:05:47.803Z,4.87
2018-10-04T08:08:19.585Z,2.63
2018-10-04T08:10:51.558Z,4.87
2018-10-04T08:13:23.218Z,2.80
2018-10-04T08:15:54.893Z,4.17
2018-10-04T08:18:26.825Z,6.80
2018-10-04T08:20:58.625Z,3.77
2018-10-04T08:23:30.468Z,4.60
2018-10-04T08:26:02.218Z,7.57
2018-10-04T08:28:33.876Z,4.97
2018-10-04T08:31:05.557Z,6.37
2018-10-04T08:33:37.492Z,6.60
2018-10-04T08:36:09.481Z,6.90
2018-10-04T08:38:41.339Z,5.33
2018-10-04T08:41:13.265Z,6.07
2018-10-04T08:43:44.939Z,5.87
2018-10-04T08:46:16.684Z,6.23
2018-10-04T08:48:48.459Z,6.47
2018-10-04T08:51:24.182Z,5.13
2018-10-04T08:53:55.898Z,6.50
2018-10-04T08:56:27.713Z,8.60
2018-10-04T08:58:59.510Z,6.60
2018-10-04T09:01:31.262Z,3.90
2018-10-04T09:04:04.361Z,6.80
2018-10-04T09:06:36.116Z,5.27
2018-10-04T09:09:08.889Z,3.30
2018-10-04T09:11:40.725Z,3.33
2018-10-04T09:14:12.728Z,3.20
2018-10-04T09:16:44.397Z,2.40
2018-10-04T09:19:16.210Z,4.33
2018-10-04T09:21:48.105Z,5.67
2018-10-04T09:24:19.864Z,6.40
2018-10-04T09:26:51.831Z,6.47
2018-10-04T09:29:23.688Z,7.90
2018-10-04T09:31:55.447Z,5.00
2018-10-04T09:34:27.247Z,5.07
2018-10-04T09:36:58.941Z,5.73
2018-10-04T09:39:30.712Z,8.57
2018-10-04T09:42:02.549Z,2.60
2018-10-04T09:44:34.356Z,6.23
2018-10-04T09:47:11.146Z,7.40
2018-10-04T09:49:42.993Z,7.40
2018-10-04T09:52:15.051Z,7.33
2018-10-04T09:55:17.530Z,5.97
2018-10-04T09:57:49.296Z,6.00
2018-10-04T10:00:26.075Z,4.63
2018-10-04T10:03:02.763Z,4.97
2018-10-04T10:05:34.739Z,4.93
2018-10-04T10:08:06.601Z,5.97
2018-10-04T10:10:38.431Z,8.77
2018-10-04T10:13:10.354Z,6.03
2018-10-04T10:15:41.810Z,10.20
2018-10-04T10:18:13.239Z,6.20
2018-10-04T10:20:44.669Z,7.40
2018-10-04T10:23:16.091Z,7.30
2018-10-04T10:25:47.742Z,7.90
2018-10-04T10:28:19.611Z,6.80
2018-10-04T10:30:51.440Z,6.43
2018-10-04T10:33:23.118Z,8.30
2018-10-04T10:35:55.094Z,5.40
2018-10-04T10:38:26.853Z,7.30
2018-10-04T10:40:58.734Z,8.03
2018-10-04T10:43:30.638Z,7.90
2018-10-04T10:46:02.407Z,4.80
2018-10-04T10:48:34.369Z,4.17
2018-10-04T10:51:10.941Z,4.60
2018-10-04T10:53:42.697Z,6.53
2018-10-04T10:56:14.544Z,5.33
2018-10-04T10:58:46.325Z,13.47
2018-10-04T11:01:18.072Z,4.63
2018-10-04T11:03:49.947Z,5.60
2018-10-04T11:06:21.731Z,5.93
2018-10-04T11:08:53.452Z,5.73
2018-10-04T11:11:25.244Z,5.57
2018-10-04T11:13:57.174Z,6.63
2018-10-04T11:16:28.971Z,4.43
2018-10-04T11:19:00.714Z,7.87
2018-10-04T11:21:32.592Z,6.87
2018-10-04T11:24:04.458Z,5.63
2018-10-04T11:26:36.202Z,5.83
2018-10-04T11:29:08.197Z,8.33
2018-10-04T11:31:40.021Z,5.90
2018-10-04T11:34:11.881Z,3.57
2018-10-04T11:36:45.029Z,3.93
2018-10-04T11:39:17.063Z,2.43
2018-10-04T11:41:49.298Z,4.77
2018-10-04T11:44:25.255Z,3.03
2018-10-04T11:47:03.958Z,2.73
2018-10-04T11:49:35.756Z,5.70
2018-10-04T11:52:07.749Z,5.97
2018-10-04T11:54:39.498Z,2.73
2018-10-04T11:57:11.249Z,3.67
2018-10-04T11:59:43.075Z,3.93
2018-10-04T12:02:14.900Z,3.83
2018-10-04T12:04:46.718Z,4.23
2018-10-04T12:07:18.755Z,4.40
2018-10-04T12:09:50.428Z,4.77
2018-10-04T12:12:22.162Z,5.93
2018-10-04T12:14:53.929Z,6.50
2018-10-04T12:17:25.674Z,4.37
2018-10-04T12:19:57.479Z,3.63
2018-10-04T12:22:29.322Z,3.83
2018-10-04T12:25:01.199Z,3.33
2018-10-04T12:27:33.166Z,3.60
2018-10-04T12:30:05.460Z,4.57
2018-10-04T12:32:37.274Z,2.97
2018-10-04T12:35:09.164Z,3.20
2018-10-04T12:37:40.978Z,2.53
2018-10-04T12:40:12.758Z,3.20
2018-10-04T12:42:44.512Z,2.73
2018-10-04T12:45:16.480Z,4.80
2018-10-04T12:47:48.262Z,3.43
2018-10-04T12:50:20.113Z,5.37
2018-10-04T12:52:51.946Z,4.47
2018-10-04T12:55:23.650Z,3.93
2018-10-04T12:57:55.390Z,3.60
2018-10-04T13:00:27.165Z,2.00
2018-10-04T13:02:58.903Z,4.37
2018-10-04T13:05:30.562Z,3.83
2018-10-04T13:08:02.406Z,4.60
2018-10-04T13:10:34.067Z,3.40
2018-10-04T13:13:05.827Z,2.90
2018-10-04T13:15:37.494Z,1.77
2018-10-04T13:18:09.266Z,3.20
2018-10-04T13:20:41.060Z,4.50
2018-10-04T13:23:12.801Z,4.00
2018-10-04T13:25:44.567Z,3.20
2018-10-04T13:28:16.343Z,5.43
2018-10-04T13:30:48.042Z,3.33
2018-10-04T13:33:19.798Z,3.70
2018-10-04T13:35:51.650Z,6.27
2018-10-04T13:38:23.318Z,5.03
2018-10-04T13:40:55.115Z,2.43
2018-10-04T13:43:26.964Z,3.27
2018-10-04T13:45:58.816Z,3.20
2018-10-04T13:48:30.574Z,3.03
2018-10-04T13:51:02.642Z,3.97
2018-10-04T13:53:34.642Z,4.17
2018-10-04T13:56:06.478Z,2.67
2018-10-04T13:58:38.213Z,3.80
2018-10-04T14:01:10.087Z,2.73
2018-10-04T14:03:41.956Z,2.13
2018-10-04T14:06:13.717Z,5.77
2018-10-04T14:08:45.461Z,2.07
2018-10-04T14:11:17.414Z,2.47
2018-10-04T14:13:49.267Z,4.23
2018-10-04T14:16:21.010Z,3.83
2018-10-04T14:18:52.780Z,3.77
2018-10-04T14:21:24.548Z,1.00
2018-10-04T14:23:56.330Z,3.30
2018-10-04T14:26:28.386Z,5.17
2018-10-04T14:29:00.142Z,2.13
2018-10-04T14:31:31.982Z,2.43
2018-10-04T14:34:03.882Z,3.10
2018-10-04T14:36:35.623Z,3.23
2018-10-04T14:39:07.729Z,5.30
2018-10-04T14:41:39.533Z,4.80
2018-10-04T14:44:11.332Z,2.87
2018-10-04T14:46:43.237Z,3.73
2018-10-04T14:49:15.502Z,2.40
2018-10-04T14:51:47.449Z,2.43
2018-10-04T14:54:19.283Z,2.20
2018-10-04T14:56:51.115Z,4.53
2018-10-04T14:59:22.778Z,0.97
2018-10-04T15:01:54.525Z,2.63
2018-10-04T15:04:26.215Z,1.50
2018-10-04T15:06:58.065Z,2.40
2018-10-04T15:09:29.928Z,0.70
2018-10-04T15:12:01.574Z,2.37
2018-10-04T15:14:33.362Z,1.43
2018-10-04T15:17:05.406Z,1.63
2018-10-04T15:19:37.174Z,2.20
2018-10-04T15:22:09.232Z,0.80
2018-10-04T15:24:41.006Z,2.77
2018-10-04T15:27:12.874Z,2.97
2018-10-04T15:29:44.514Z,2.93
2018-10-04T15:32:16.409Z,5.07
2018-10-04T15:34:48.157Z,6.33
2018-10-04T15:37:19.976Z,2.30
2018-10-04T15:39:51.753Z,1.67
2018-10-04T15:42:23.509Z,0.73
2018-10-04T15:44:55.254Z,1.13
2018-10-04T15:47:27.047Z,2.93
2018-10-04T15:49:58.986Z,3.33
2018-10-04T15:52:30.627Z,1.73
2018-10-04T15:55:02.295Z,5.40
2018-10-04T15:57:33.963Z,2.70
2018-10-04T16:00:06.246Z,4.53
2018-10-04T16:02:38.289Z,1.50
2018-10-04T16:05:10.245Z,1.63
2018-10-04T16:07:42.122Z,1.27
2018-10-04T16:10:13.799Z,2.43
2018-10-04T16:12:45.619Z,0.77
2018-10-04T16:15:23.514Z,0.70
2018-10-04T16:17:55.201Z,1.03
2018-10-04T16:20:27.245Z,1.80
2018-10-04T16:22:59.048Z,1.93
2018-10-04T16:25:30.789Z,1.00
2018-10-04T16:28:02.616Z,1.37
2018-10-04T16:30:34.521Z,1.63
2018-10-04T16:33:06.265Z,2.20
2018-10-04T16:35:38.025Z,2.60
2018-10-04T16:38:09.825Z,2.17
2018-10-04T16:40:41.763Z,3.07
2018-10-04T16:43:13.510Z,2.17
2018-10-04T16:45:45.354Z,2.53
2018-10-04T16:48:17.346Z,3.07
2018-10-04T16:50:49.082Z,3.50
2018-10-04T16:53:20.850Z,6.03
2018-10-04T16:55:52.691Z,5.13
2018-10-04T16:58:24.453Z,1.80
2018-10-04T17:00:56.171Z,4.07
2018-10-04T17:03:27.994Z,5.07
2018-10-04T17:06:00.033Z,3.83
2018-10-04T17:08:31.936Z,3.43
2018-10-04T17:11:03.681Z,2.57
2018-10-04T17:13:35.552Z,5.33
2018-10-04T17:16:07.427Z,4.30
2018-10-04T17:18:39.252Z,5.20
2018-10-04T17:21:11.146Z,4.40
2018-10-04T17:23:42.876Z,3.93
2018-10-04T17:26:14.635Z,4.43
2018-10-04T17:28:46.379Z,4.87
2018-10-04T17:31:17.957Z,3.70
2018-10-04T17:33:49.802Z,5.50
2018-10-04T17:36:21.584Z,4.00
2018-10-04T17:38:53.322Z,3.03
2018-10-04T17:41:24.986Z,3.07
2018-10-04T17:43:56.822Z,2.53
2018-10-04T17:46:28.619Z,3.67
2018-10-04T17:49:00.366Z,5.60
2018-10-04T17:51:32.633Z,6.67
2018-10-04T17:54:04.566Z,3.87
2018-10-04T17:56:36.337Z,4.47
2018-10-04T17:59:08.336Z,3.77
2018-10-04T18:01:40.088Z,4.47
2018-10-04T18:04:11.916Z,2.77
2018-10-04T18:06:43.709Z,5.37
2018-10-04T18:09:15.553Z,5.40
2018-10-04T18:11:47.222Z,4.43
2018-10-04T18:14:18.952Z,4.33
2018-10-04T18:16:50.626Z,4.80
2018-10-04T18:19:22.382Z,4.40
2018-10-04T18:21:54.131Z,7.43
2018-10-04T18:24:26.007Z,5.73
2018-10-04T18:26:57.661Z,7.20
2018-10-04T18:29:29.444Z,6.27
2018-10-04T18:32:01.196Z,6.17
2018-10-04T18:34:32.967Z,3.97
2018-10-04T18:37:04.601Z,6.20
2018-10-04T18:39:36.287Z,5.60
2018-10-04T18:42:08.209Z,4.43
2018-10-04T18:44:40.173Z,3.67
2018-10-04T18:47:11.954Z,4.70
2018-10-04T18:49:44.430Z,5.97
2018-10-04T18:52:16.274Z,3.17
2018-10-04T18:54:48.047Z,4.77
2018-10-04T18:57:19.885Z,5.03
2018-10-04T18:59:51.613Z,8.63
2018-10-04T19:02:23.334Z,5.57
2018-10-04T19:04:55.260Z,6.60
2018-10-04T19:07:27.019Z,6.67
2018-10-04T19:09:58.720Z,6.50
2018-10-04T19:12:30.775Z,8.93
2018-10-04T19:15:02.816Z,5.50
2018-10-04T19:17:34.478Z,5.50
2018-10-04T19:20:06.286Z,9.33
2018-10-04T19:22:38.190Z,7.63
2018-10-04T19:25:09.990Z,4.50
2018-10-04T19:27:41.824Z,8.57
2018-10-04T19:30:13.677Z,6.73
2018-10-04T19:32:45.333Z,8.40
2018-10-04T19:35:17.403Z,6.30
2018-10-04T19:37:49.178Z,7.80
2018-10-04T19:40:21.115Z,6.23
2018-10-04T19:42:52.773Z,5.00
2018-10-04T19:45:24.553Z,7.50
2018-10-04T19:47:56.405Z,7.50
2018-10-04T19:50:28.273Z,6.50
2018-10-04T19:53:00.048Z,5.93
2018-10-04T19:55:31.903Z,6.03
2018-10-04T19:58:03.889Z,6.93
2018-10-04T20:00:35.726Z,6.40
2018-10-04T20:03:07.683Z,4.37
2018-10-04T20:05:39.454Z,9.27
2018-10-04T20:08:11.392Z,9.63
2018-10-04T20:10:43.170Z,7.93
2018-10-04T20:13:14.835Z,7.60
2018-10-04T20:15:46.661Z,9.50
2018-10-04T20:18:18.569Z,9.07
2018-10-04T20:20:50.526Z,12.07
2018-10-04T20:23:22.370Z,9.30
2018-10-04T20:25:54.309Z,6.80
2018-10-04T20:28:26.106Z,5.90
2018-10-04T20:30:57.854Z,8.50
2018-10-04T20:33:29.584Z,6.70
2018-10-04T20:36:01.545Z,6.97
2018-10-04T20:38:33.221Z,7.37
2018-10-04T20:41:04.889Z,5.27
2018-10-04T20:43:36.800Z,7.30
2018-10-04T20:46:08.384Z,7.00
2018-10-04T20:48:40.218Z,6.70
2018-10-04T20:51:12.040Z,8.37
2018-10-04T20:53:43.769Z,8.33
2018-10-04T20:56:15.551Z,8.10
2018-10-04T20:58:47.432Z,6.70
2018-10-04T21:01:19.278Z,8.70
2018-10-04T21:03:51.006Z,5.97
2018-10-04T21:06:22.947Z,7.07
2018-10-04T21:08:54.939Z,8.10
2018-10-04T21:11:26.613Z,11.07
2018-10-04T21:13:58.265Z,9.07
2018-10-04T21:16:30.008Z,7.67
2018-10-04T21:19:01.663Z,5.40
2018-10-04T21:21:33.513Z,6.70
2018-10-04T21:24:05.316Z,13.07
2018-10-04T21:26:37.278Z,6.57
2018-10-04T21:29:09.018Z,7.10
2018-10-04T21:31:40.765Z,5.67
2018-10-04T21:34:12.424Z,6.23
2018-10-04T21:36:44.198Z,4.73
2018-10-04T21:39:15.936Z,6.33
2018-10-04T21:41:47.610Z,7.33
2018-10-04T21:44:19.261Z,8.80
2018-10-04T21:46:51.012Z,9.13
2018-10-04T21:49:22.878Z,5.70
2018-10-04T21:51:54.951Z,8.53
2018-10-04T21:54:26.604Z,6.07
2018-10-04T21:56:58.456Z,6.70
2018-10-04T21:59:30.117Z,5.87
2018-10-04T22:02:01.886Z,7.20
2018-10-04T22:04:33.624Z,7.90
2018-10-04T22:07:05.292Z,4.60
2018-10-04T22:09:37.029Z,6.50
2018-10-04T22:12:08.997Z,5.73
2018-10-04T22:14:40.798Z,6.17
2018-10-04T22:17:12.541Z,6.33
2018-10-04T22:19:44.288Z,5.53
2018-10-04T22:22:16.072Z,8.70
2018-10-04T22:24:47.913Z,6.83
2018-10-04T22:27:19.766Z,7.80
2018-10-04T22:29:51.537Z,6.83
2018-10-04T22:32:23.184Z,7.07
2018-10-04T22:34:55.034Z,5.77
2018-10-04T22:37:27.110Z,5.93
2018-10-04T22:39:58.865Z,7.13
2018-10-04T22:42:30.525Z,5.67
2018-10-04T22:45:02.419Z,8.20
2018-10-04T22:47:34.302Z,8.37
2018-10-04T22:50:06.244Z,8.87
2018-10-04T22:52:38.207Z,5.17
2018-10-04T22:55:09.998Z,5.17
2018-10-04T22:57:41.793Z,8.00
2018-10-04T23:00:13.474Z,6.50
2018-10-04T23:02:45.172Z,5.73
2018-10-04T23:05:17.068Z,4.40
2018-10-04T23:07:49.025Z,6.10
2018-10-04T23:10:20.789Z,7.93
2018-10-04T23:12:52.477Z,4.80
2018-10-04T23:15:24.407Z,5.10
2018-10-04T23:17:56.073Z,5.57
2018-10-04T23:20:27.827Z,3.97
2018-10-04T23:22:59.701Z,5.97
2018-10-04T23:25:31.372Z,3.67
2018-10-04T23:28:03.206Z,6.33
2018-10-04T23:30:34.870Z,5.77
2018-10-04T23:33:06.645Z,5.23
2018-10-04T23:35:38.587Z,3.60
2018-10-04T23:38:10.462Z,9.17
2018-10-04T23:40:42.069Z,6.73
2018-10-04T23:43:13.889Z,7.77
2018-10-04T23:45:45.943Z,4.27
2018-10-04T23:48:17.795Z,6.37
2018-10-04T23:50:49.983Z,4.83
2018-10-04T23:53:21.642Z,6.07
2018-10-04T23:55:53.378Z,6.07
2018-10-04T23:58:29.212Z,3.80
